Time;durP1;ratioP1;P1;durP2;ratioP2;P2;SDS_P1;SDS_P2;PMS_P1;PMS_P2;Temp;Humidity;BMP_temperature;BMP_pressure;BME280_temperature;BME280_humidity;BME280_pressure;Samples;Min_cycle;Max_cycle;Signal;HPM_P1;HPM_P2
2024/01/19 00:01:48;;;;;;;143.90;51.03;;;;;;;-142.57;100.00;56105.16;5012712;28;20026;-82
2024/01/19 00:04:14;;;;;;;142.77;49.78;;;;;;;-142.57;100.00;56145.56;5013297;28;20045;-81
2024/01/19 00:06:39;;;;;;;139.73;49.95;;;;;;;-142.57;100.00;56052.63;5014180;28;20034;-81
2024/01/19 00:09:08;;;;;;;189.40;59.33;;;;;;;-142.57;100.00;56042.50;5012781;28;20494;-81
2024/01/19 00:11:33;;;;;;;292.77;79.75;;;;;;;-142.57;100.00;56012.19;5014200;28;20034;-84
2024/01/19 00:13:59;;;;;;;232.90;66.60;;;;;;;-142.57;100.00;56054.63;5013947;28;20557;-83
2024/01/19 00:16:25;;;;;;;164.25;57.22;;;;;;;-142.57;100.00;56084.94;5013538;28;20192;-82
2024/01/19 00:18:51;;;;;;;144.55;53.20;;;;;;;-142.57;100.00;56147.59;5013210;28;20088;-80
2024/01/19 00:21:17;;;;;;;128.75;51.10;;;;;;;-142.57;100.00;56076.88;5013205;28;20034;-81
2024/01/19 00:23:42;;;;;;;134.85;50.35;;;;;;;-142.57;100.00;56072.81;5011777;28;20049;-82
2024/01/19 00:26:08;;;;;;;148.60;54.97;;;;;;;-142.57;100.00;56058.69;5027829;28;20073;-82
2024/01/19 00:28:33;;;;;;;143.18;50.58;;;;;;;-142.57;100.00;56089.00;5013002;28;20042;-79
2024/01/19 00:30:59;;;;;;;131.13;48.00;;;;;;;-142.57;100.00;56093.03;5012838;28;20065;-82
2024/01/19 00:33:24;;;;;;;134.00;49.67;;;;;;;-142.57;100.00;56064.75;5013043;28;20398;-81
2024/01/19 00:35:51;;;;;;;139.27;50.78;;;;;;;-142.57;100.00;56101.13;5012865;28;20026;-82
2024/01/19 00:38:16;;;;;;;134.73;52.25;;;;;;;-142.57;100.00;56060.69;5013148;28;20030;-81
2024/01/19 00:40:43;;;;;;;127.00;47.80;;;;;;;-142.57;100.00;56097.06;5013729;28;20041;-83
2024/01/19 00:43:09;;;;;;;130.52;52.03;;;;;;;-142.57;100.00;56034.44;5032640;28;20101;-83
2024/01/19 00:45:35;;;;;;;130.82;52.17;;;;;;;-142.57;100.00;56032.41;5032149;28;20124;-81
2024/01/19 00:48:00;;;;;;;145.07;54.03;;;;;;;-142.57;100.00;56068.78;5032394;28;20444;-80
2024/01/19 00:50:26;;;;;;;136.55;52.92;;;;;;;-142.57;100.00;56056.66;5030854;28;20026;-80
2024/01/19 00:52:51;;;;;;;135.68;51.33;;;;;;;-142.57;100.00;56060.69;5032443;28;20105;-84
2024/01/19 00:55:16;;;;;;;137.52;53.22;;;;;;;-142.57;100.00;56082.94;5030925;28;20470;-81
2024/01/19 00:57:45;;;;;;;134.38;51.88;;;;;;;-142.57;100.00;56093.03;5031492;28;20038;-82
2024/01/19 01:00:11;;;;;;;139.07;54.58;;;;;;;-142.57;100.00;56097.06;5032381;28;20033;-82
2024/01/19 01:02:36;;;;;;;155.68;56.80;;;;;;;-142.57;100.00;56121.31;5030476;28;20033;-82
2024/01/19 01:05:02;;;;;;;141.82;58.00;;;;;;;-142.57;100.00;56082.94;5031436;28;20569;-85
2024/01/19 01:07:27;;;;;;;144.63;56.40;;;;;;;-142.57;100.00;56084.94;5031897;28;20056;-82
2024/01/19 01:09:53;;;;;;;141.13;55.40;;;;;;;-142.57;100.00;56089.00;5030152;28;20444;-83
2024/01/19 01:12:18;;;;;;;138.27;55.72;;;;;;;-142.57;100.00;56068.78;5032247;28;20022;-82
2024/01/19 01:14:44;;;;;;;128.48;52.63;;;;;;;-142.57;100.00;56084.94;5031326;28;20656;-82
2024/01/19 01:17:09;;;;;;;133.98;52.00;;;;;;;-142.57;100.00;56097.06;5031566;28;20030;-80
2024/01/19 01:19:35;;;;;;;128.85;51.78;;;;;;;-142.57;100.00;56105.16;5047019;28;20072;-81
2024/01/19 01:22:00;;;;;;;123.85;54.10;;;;;;;-142.57;100.00;56103.13;5031271;28;20052;-79
2024/01/19 01:24:26;;;;;;;124.05;51.72;;;;;;;-142.57;100.00;56058.69;5031382;28;20053;-81
2024/01/19 01:26:51;;;;;;;128.05;51.83;;;;;;;-142.57;100.00;56060.69;5029814;28;20390;-81
2024/01/19 01:29:17;;;;;;;129.57;53.20;;;;;;;-142.57;100.00;56054.63;5031594;28;20478;-82
2024/01/19 01:31:43;;;;;;;137.73;54.17;;;;;;;-142.57;100.00;56080.91;5046483;28;20040;-80
2024/01/19 01:34:08;;;;;;;133.70;55.15;;;;;;;-142.57;100.00;56068.78;5031289;28;20032;-78
2024/01/19 01:36:34;;;;;;;131.63;56.05;;;;;;;-142.57;100.00;56036.44;5031518;28;20453;-81
2024/01/19 01:38:59;;;;;;;125.82;54.20;;;;;;;-142.57;100.00;56064.75;5031346;28;20106;-80
2024/01/19 01:41:25;;;;;;;132.55;55.88;;;;;;;-142.57;100.00;56064.75;5031142;28;20068;-81
2024/01/19 01:43:51;;;;;;;132.55;55.10;;;;;;;-142.57;100.00;56038.47;5031104;28;20045;-81
2024/01/19 01:46:16;;;;;;;142.93;58.17;;;;;;;-142.57;100.00;56068.78;5033102;28;20079;-80
2024/01/19 01:48:42;;;;;;;132.13;55.70;;;;;;;-142.57;100.00;56052.63;5035153;28;20038;-79
2024/01/19 01:51:08;;;;;;;138.13;57.75;;;;;;;-142.57;100.00;56082.94;5035006;28;20434;-80
2024/01/19 01:53:35;;;;;;;136.57;55.00;;;;;;;-142.57;100.00;56068.78;5035054;28;20037;-84
2024/01/19 01:56:01;;;;;;;142.00;57.95;;;;;;;-142.57;100.00;56048.56;5035745;28;20377;-82
2024/01/19 01:58:27;;;;;;;139.68;57.65;;;;;;;-142.57;100.00;56046.56;5040603;28;20045;-80
2024/01/19 02:00:52;;;;;;;144.05;56.80;;;;;;;-142.57;100.00;56097.06;5039177;28;20040;-80
2024/01/19 02:03:18;;;;;;;145.75;59.17;;;;;;;-142.57;100.00;56084.94;5036533;28;20071;-81
2024/01/19 02:05:44;;;;;;;138.43;55.00;;;;;;;-142.57;100.00;56111.22;5035326;28;20029;-80
2024/01/19 02:08:09;;;;;;;141.32;56.95;;;;;;;-142.57;100.00;56082.94;5035503;28;20474;-80
2024/01/19 02:10:35;;;;;;;149.07;59.50;;;;;;;-142.57;100.00;56064.75;5035113;28;20409;-80
2024/01/19 02:13:01;;;;;;;142.18;58.95;;;;;;;-142.57;100.00;56119.31;5034977;28;20617;-80
2024/01/19 02:15:27;;;;;;;146.35;59.78;;;;;;;-142.57;100.00;56113.25;5033775;28;20029;-80
2024/01/19 02:17:53;;;;;;;146.15;60.30;;;;;;;-142.57;100.00;56095.06;5035016;28;20044;-79
2024/01/19 02:20:20;;;;;;;146.57;58.25;;;;;;;-142.57;100.00;56054.63;5034924;28;20041;-81
2024/01/19 02:22:47;;;;;;;145.50;61.78;;;;;;;-142.57;100.00;56101.13;5033924;28;20034;-80
2024/01/19 02:25:13;;;;;;;152.27;60.63;;;;;;;-142.57;100.00;56093.03;5033448;28;20115;-81
2024/01/19 02:27:38;;;;;;;150.65;61.13;;;;;;;-142.57;100.00;56056.66;5034522;28;20033;-81
2024/01/19 02:30:07;;;;;;;150.15;60.30;;;;;;;-142.57;100.00;56052.63;5034593;28;20029;-80
2024/01/19 02:32:33;;;;;;;150.60;60.53;;;;;;;-142.57;100.00;56056.66;5035114;28;20077;-82
2024/01/19 02:34:58;;;;;;;160.25;61.67;;;;;;;-142.57;100.00;56084.94;5034932;28;20531;-81
2024/01/19 02:37:23;;;;;;;151.20;60.95;;;;;;;-142.57;100.00;56070.81;5035021;28;20457;-80
2024/01/19 02:39:49;;;;;;;161.63;63.15;;;;;;;-142.57;100.00;56097.06;5034985;28;20037;-81
2024/01/19 02:42:15;;;;;;;150.10;60.50;;;;;;;-142.57;100.00;56095.06;5033586;28;20486;-81
2024/01/19 02:44:41;;;;;;;156.07;60.83;;;;;;;-142.57;100.00;56105.16;5033814;28;20040;-82
2024/01/19 02:47:06;;;;;;;143.52;59.50;;;;;;;-142.57;100.00;56097.06;5034808;28;20470;-82
2024/01/19 02:49:32;;;;;;;152.98;62.08;;;;;;;-142.57;100.00;56024.31;5032632;28;20045;-81
2024/01/19 02:51:57;;;;;;;143.38;59.58;;;;;;;-142.57;100.00;56068.78;5032422;28;20037;-82
2024/01/19 02:54:23;;;;;;;141.70;60.75;;;;;;;-142.57;100.00;56032.41;5045626;28;20051;-83
2024/01/19 02:56:48;;;;;;;142.90;61.35;;;;;;;-142.57;100.00;56056.66;5029289;28;20459;-85
2024/01/19 02:59:14;;;;;;;141.95;60.90;;;;;;;-142.57;100.00;56060.69;5020765;28;20506;-84
2024/01/19 03:01:40;;;;;;;147.48;63.25;;;;;;;-142.57;100.00;56048.56;5016211;28;20475;-83
2024/01/19 03:04:05;;;;;;;147.73;59.90;;;;;;;-142.57;100.00;56064.75;5019109;28;20038;-82
2024/01/19 03:06:31;;;;;;;147.18;60.72;;;;;;;-142.57;100.00;56042.50;5024996;28;20046;-83
2024/01/19 03:08:56;;;;;;;150.93;62.50;;;;;;;-142.57;100.00;56032.41;5018936;28;20429;-84
2024/01/19 03:11:22;;;;;;;139.93;59.05;;;;;;;-142.57;100.00;56068.78;5015755;28;20060;-77
2024/01/19 03:13:50;;;;;;;140.82;60.72;;;;;;;-142.57;100.00;56054.63;5023667;28;20034;-77
2024/01/19 03:16:16;;;;;;;144.68;60.67;;;;;;;-142.57;100.00;56064.75;5016607;28;20175;-77
2024/01/19 03:18:41;;;;;;;148.40;61.33;;;;;;;-142.57;100.00;56050.59;5014449;28;20530;-82
2024/01/19 03:21:07;;;;;;;145.50;61.28;;;;;;;-142.57;100.00;56064.75;5027736;28;20076;-80
2024/01/19 03:23:33;;;;;;;136.10;58.80;;;;;;;-142.57;100.00;56048.56;5013833;28;20044;-82
2024/01/19 03:25:58;;;;;;;143.63;61.40;;;;;;;-142.57;100.00;56062.72;5022492;28;20029;-81
2024/01/19 03:28:24;;;;;;;138.77;58.67;;;;;;;-142.57;100.00;56052.63;5018267;28;20034;-84
2024/01/19 03:30:49;;;;;;;139.15;60.17;;;;;;;-142.57;100.00;56044.53;5023118;28;20033;-85
2024/01/19 03:33:15;;;;;;;135.45;58.88;;;;;;;-142.57;100.00;56074.84;5029567;28;20364;-79
2024/01/19 03:35:40;;;;;;;146.88;60.38;;;;;;;-142.57;100.00;56032.41;5014044;28;20109;-82
2024/01/19 03:38:06;;;;;;;147.77;61.28;;;;;;;-142.57;100.00;56064.75;5027445;28;20046;-81
2024/01/19 03:40:31;;;;;;;147.13;63.75;;;;;;;-142.57;100.00;56036.44;5025852;28;20026;-83
2024/01/19 03:42:57;;;;;;;142.18;60.08;;;;;;;-142.57;100.00;56048.56;5014842;28;21546;-82
2024/01/19 03:45:22;;;;;;;151.10;64.32;;;;;;;-142.57;100.00;56036.44;5022630;28;20044;-82
2024/01/19 03:47:48;;;;;;;153.20;63.95;;;;;;;-142.57;100.00;56064.75;5014307;28;20042;-82
2024/01/19 03:50:13;;;;;;;139.20;58.22;;;;;;;-142.57;100.00;56101.13;5024835;28;20042;-84
2024/01/19 03:52:39;;;;;;;146.02;60.95;;;;;;;-142.57;100.00;56048.56;5013423;28;20104;-82
2024/01/19 03:55:05;;;;;;;139.85;58.80;;;;;;;-142.57;100.00;56101.13;5013647;28;20038;-83
2024/01/19 03:57:30;;;;;;;137.20;58.47;;;;;;;-142.57;100.00;56072.81;5012130;28;20088;-84
2024/01/19 03:59:56;;;;;;;128.02;56.63;;;;;;;-142.57;100.00;56101.13;5013379;28;20052;-82
2024/01/19 04:02:22;;;;;;;135.82;57.83;;;;;;;-142.57;100.00;56072.81;5013739;28;20121;-83
2024/01/19 04:04:48;;;;;;;144.20;58.13;;;;;;;-142.57;100.00;56058.69;5013544;28;20045;-80
2024/01/19 04:07:14;;;;;;;142.13;59.22;;;;;;;-142.57;100.00;56016.25;5013526;28;20028;-82
2024/01/19 04:09:40;;;;;;;170.50;66.47;;;;;;;-142.57;100.00;56030.38;5013394;28;20107;-83
2024/01/19 04:12:14;;;;;;;158.18;64.97;;;;;;;-142.57;100.00;56036.44;5013409;28;20030;-82
2024/01/19 04:14:41;;;;;;;173.90;66.85;;;;;;;-142.57;100.00;56062.72;5013373;28;20041;-78
2024/01/19 04:17:07;;;;;;;166.75;67.13;;;;;;;-142.57;100.00;56072.81;5013449;28;20033;-80
2024/01/19 04:19:33;;;;;;;176.75;67.47;;;;;;;-142.57;100.00;56076.88;5013202;28;20038;-83
2024/01/19 04:21:59;;;;;;;180.40;70.15;;;;;;;-142.57;100.00;56095.06;5028208;28;20053;-80
2024/01/19 04:24:24;;;;;;;191.38;70.35;;;;;;;-142.57;100.00;56157.69;5014283;28;20129;-85
2024/01/19 04:26:50;;;;;;;186.85;70.28;;;;;;;-142.57;100.00;56200.13;5013327;28;20121;-81
2024/01/19 04:29:16;;;;;;;196.88;73.82;;;;;;;-142.57;100.00;56137.50;5012998;28;20042;-83
2024/01/19 04:31:41;;;;;;;208.55;75.93;;;;;;;-142.57;100.00;56141.53;5013348;28;20033;-83
2024/01/19 04:34:07;;;;;;;206.38;72.78;;;;;;;-142.57;100.00;56165.78;5013056;28;20034;-81
2024/01/19 04:36:32;;;;;;;200.40;72.65;;;;;;;-142.57;100.00;56137.50;5011615;28;20065;-78
2024/01/19 04:38:58;;;;;;;193.80;71.55;;;;;;;-142.57;100.00;56181.94;5013260;28;20124;-79
2024/01/19 04:41:23;;;;;;;186.95;69.75;;;;;;;-142.57;100.00;56137.50;5012503;28;20026;-81
2024/01/19 04:43:49;;;;;;;191.85;70.00;;;;;;;-142.57;100.00;56121.31;5011985;28;20450;-80
2024/01/19 04:46:15;;;;;;;196.90;70.13;;;;;;;-142.57;100.00;56141.53;5012612;28;20030;-81
2024/01/19 04:48:40;;;;;;;189.48;70.68;;;;;;;-142.57;100.00;56151.63;5012774;28;20045;-78
2024/01/19 04:51:06;;;;;;;195.23;69.75;;;;;;;-142.57;100.00;56129.41;5012966;28;20087;-79
2024/01/19 04:53:32;;;;;;;194.15;71.10;;;;;;;-142.57;100.00;56155.66;5012960;28;20053;-80
2024/01/19 04:55:57;;;;;;;206.02;73.50;;;;;;;-142.57;100.00;56145.56;5012781;28;20348;-80
2024/01/19 04:58:23;;;;;;;198.05;73.68;;;;;;;-142.57;100.00;56121.31;5013126;28;20130;-81
2024/01/19 05:00:49;;;;;;;195.73;72.85;;;;;;;-142.57;100.00;56143.56;5017474;28;20073;-81
2024/01/19 05:03:15;;;;;;;191.82;71.63;;;;;;;-142.57;100.00;56147.59;5022262;28;20416;-79
2024/01/19 05:05:41;;;;;;;186.52;70.03;;;;;;;-142.57;100.00;56165.78;5017014;28;20053;-81
2024/01/19 05:08:06;;;;;;;199.82;71.10;;;;;;;-142.57;100.00;56141.53;5012769;28;20046;-83
2024/01/19 05:10:32;;;;;;;183.52;69.60;;;;;;;-142.57;100.00;56181.94;5012577;28;20030;-80
2024/01/19 05:12:58;;;;;;;181.65;67.45;;;;;;;-142.57;100.00;56226.41;5012473;28;20076;-79
2024/01/19 05:15:25;;;;;;;184.60;70.65;;;;;;;-142.57;100.00;56177.91;5012299;28;20471;-82
2024/01/19 05:17:51;;;;;;;176.77;70.00;;;;;;;-142.57;100.00;56155.66;5012599;28;20025;-84
2024/01/19 05:20:18;;;;;;;193.10;71.97;;;;;;;-142.57;100.00;56147.59;5012463;28;20553;-82
2024/01/19 05:22:43;;;;;;;188.57;74.93;;;;;;;-142.57;100.00;56105.16;5016354;28;20045;-81
2024/01/19 05:25:09;;;;;;;203.20;77.22;;;;;;;-142.57;100.00;56103.13;5016146;28;20038;-80
2024/01/19 05:27:35;;;;;;;249.27;89.32;;;;;;;-142.57;100.00;56163.75;5016376;28;20112;-83
2024/01/19 05:30:01;;;;;;;240.63;79.32;;;;;;;-142.57;100.00;56202.16;5015815;28;20064;-84
2024/01/19 05:32:26;;;;;;;205.80;74.70;;;;;;;-142.57;100.00;56185.97;5016044;28;20034;-78
2024/01/19 05:34:52;;;;;;;211.60;74.78;;;;;;;-142.57;100.00;56157.69;5016238;28;20073;-81
2024/01/19 05:37:18;;;;;;;202.20;74.50;;;;;;;-142.57;100.00;56145.56;5015946;28;20037;-81
2024/01/19 05:39:44;;;;;;;218.70;75.63;;;;;;;-142.57;100.00;56169.81;5015862;28;20045;-80
2024/01/19 05:42:10;;;;;;;231.88;82.88;;;;;;;-142.57;100.00;56141.53;5016407;28;20483;-80
2024/01/19 05:44:37;;;;;;;218.65;80.10;;;;;;;-142.57;100.00;56190.03;5016843;28;20117;-82
2024/01/19 05:47:03;;;;;;;195.80;72.18;;;;;;;-142.57;100.00;56177.91;5034322;28;20037;-80
2024/01/19 05:49:28;;;;;;;209.38;74.55;;;;;;;-142.57;100.00;56177.91;5035606;28;20470;-79
2024/01/19 05:51:54;;;;;;;195.50;72.03;;;;;;;-142.57;100.00;56198.09;5035531;28;20025;-81
2024/01/19 05:54:19;;;;;;;199.60;71.47;;;;;;;-142.57;100.00;56161.72;5035459;28;20029;-83
2024/01/19 05:56:45;;;;;;;196.30;72.68;;;;;;;-142.57;100.00;56175.88;5036454;28;20068;-84
2024/01/19 05:59:10;;;;;;;187.63;70.93;;;;;;;-142.57;100.00;56165.78;5033862;28;20041;-80
2024/01/19 06:01:36;;;;;;;188.57;68.07;;;;;;;-142.57;100.00;56200.13;5025261;28;20544;-84
2024/01/19 06:04:02;;;;;;;180.40;68.90;;;;;;;-142.57;100.00;56159.72;5017066;28;20072;-81
2024/01/19 06:06:27;;;;;;;181.32;68.30;;;;;;;-142.57;100.00;56210.22;5015938;28;20499;-87
2024/01/19 06:08:53;;;;;;;176.63;67.68;;;;;;;-142.57;100.00;56206.19;5020214;28;20032;-81
2024/01/19 06:11:19;;;;;;;179.35;68.85;;;;;;;-142.57;100.00;56173.84;5020153;28;20531;-83
2024/01/19 06:13:47;;;;;;;181.82;67.85;;;;;;;-142.57;100.00;56188.00;5036603;28;20032;-84
2024/01/19 06:16:13;;;;;;;169.35;65.97;;;;;;;-142.57;100.00;56145.56;5048250;28;20064;-84
2024/01/19 06:18:38;;;;;;;187.35;67.22;;;;;;;-142.57;100.00;56105.16;5024554;28;20541;-88
2024/01/19 06:21:09;;;;;;;169.25;65.53;;;;;;;-142.57;100.00;56141.53;5019666;28;20060;-85
2024/01/19 06:23:36;;;;;;;175.38;66.97;;;;;;;-142.57;100.00;56133.44;5018907;28;20399;-85
2024/01/19 06:26:07;;;;;;;175.10;65.97;;;;;;;-142.57;100.00;56133.44;5034519;28;21375;-85
2024/01/19 06:28:32;;;;;;;174.75;65.82;;;;;;;-142.57;100.00;56149.63;5026599;28;20137;-83
2024/01/19 06:30:58;;;;;;;190.15;69.07;;;;;;;-142.57;100.00;56145.56;5034946;28;20147;-86
2024/01/19 06:33:23;;;;;;;184.73;68.55;;;;;;;-142.57;100.00;56161.72;5033344;28;20034;-85
2024/01/19 06:35:49;;;;;;;156.18;65.07;;;;;;;-142.57;100.00;56212.25;5021772;28;20048;-85
2024/01/19 06:38:15;;;;;;;168.00;67.85;;;;;;;-142.57;100.00;56161.72;5030180;28;20033;-87
2024/01/19 06:40:40;;;;;;;168.85;65.78;;;;;;;-142.57;100.00;56163.75;5026048;28;20477;-85
2024/01/19 06:43:09;;;;;;;171.95;66.70;;;;;;;-142.57;100.00;56161.72;5023348;28;20029;-85
2024/01/19 06:45:35;;;;;;;174.13;69.03;;;;;;;-142.57;100.00;56165.78;5027828;28;20042;-87
2024/01/19 06:48:00;;;;;;;163.10;64.80;;;;;;;-142.57;100.00;56177.91;5012413;28;20491;-85
2024/01/19 06:50:26;;;;;;;159.30;65.80;;;;;;;-142.57;100.00;56190.03;5022078;28;20406;-84
2024/01/19 06:53:04;;;;;;;158.88;64.68;;;;;;;-142.57;100.00;56177.91;5036859;28;20061;-82
2024/01/19 06:55:32;;;;;;;158.02;61.45;;;;;;;-142.57;100.00;56177.91;5026733;28;20050;-88
2024/01/19 06:57:58;;;;;;;152.90;60.30;;;;;;;-142.57;100.00;56113.25;5039694;28;20049;-85
2024/01/19 07:00:23;;;;;;;149.60;58.60;;;;;;;-142.57;100.00;56149.63;5034256;28;20049;-83
2024/01/19 07:02:49;;;;;;;151.82;61.85;;;;;;;-142.57;100.00;56137.50;5045430;28;20026;-88
2024/01/19 07:05:15;;;;;;;158.93;62.45;;;;;;;-142.57;100.00;56121.31;5040161;28;20061;-85
2024/01/19 07:07:40;;;;;;;153.10;60.25;;;;;;;-142.57;100.00;56105.16;5039681;28;20057;-85
2024/01/19 07:10:10;;;;;;;156.30;61.25;;;;;;;-142.57;100.00;56129.41;5040686;28;20061;-84
2024/01/19 07:12:35;;;;;;;155.63;61.75;;;;;;;-142.57;100.00;56127.38;5042259;28;20155;-88
2024/01/19 07:15:06;;;;;;;151.45;61.58;;;;;;;-142.57;100.00;56159.72;5043690;28;20167;-86
2024/01/19 07:17:31;;;;;;;147.38;59.88;;;;;;;-142.57;100.00;56117.28;5040700;28;20032;-82
2024/01/19 07:19:59;;;;;;;142.77;58.92;;;;;;;-142.57;100.00;56119.31;5043523;28;20030;-82
2024/01/19 07:22:26;;;;;;;161.50;62.58;;;;;;;-142.57;100.00;56137.50;5047426;28;20018;-83
2024/01/19 07:24:52;;;;;;;146.68;60.13;;;;;;;-142.57;100.00;56121.31;5042719;28;20113;-87
2024/01/19 07:27:17;;;;;;;156.50;59.90;;;;;;;-142.57;100.00;56101.13;5036380;28;20064;-83
2024/01/19 07:29:43;;;;;;;152.52;61.33;;;;;;;-142.57;100.00;56131.44;5045317;28;20014;-82
2024/01/19 07:32:08;;;;;;;149.98;61.67;;;;;;;-142.57;100.00;56173.84;5038796;28;20021;-79
2024/01/19 07:34:34;;;;;;;165.80;63.58;;;;;;;-142.57;100.00;56121.31;5053377;28;20029;-82
2024/01/19 07:37:00;;;;;;;155.23;64.45;;;;;;;-142.57;100.00;56084.94;5046286;28;20069;-80
2024/01/19 07:39:26;;;;;;;161.93;60.92;;;;;;;-142.57;100.00;56149.63;5043354;28;20068;-83
2024/01/19 07:41:51;;;;;;;172.98;63.17;;;;;;;-142.57;100.00;56123.34;5045527;28;20046;-81
2024/01/19 07:44:18;;;;;;;163.50;62.88;;;;;;;-142.57;100.00;56141.53;5046122;28;20029;-81
2024/01/19 07:46:44;;;;;;;174.93;63.63;;;;;;;-142.57;100.00;56143.56;5049145;28;20068;-85
2024/01/19 07:49:11;;;;;;;174.45;65.28;;;;;;;-142.57;100.00;56123.34;5041739;28;20037;-82
2024/01/19 07:51:37;;;;;;;159.82;64.05;;;;;;;-142.57;100.00;56153.66;5039488;28;20038;-84
2024/01/19 07:54:05;;;;;;;249.50;69.97;;;;;;;-142.57;100.00;56159.72;5035279;28;20436;-82
2024/01/19 07:56:31;;;;;;;320.90;76.97;;;;;;;-142.57;100.00;56143.56;5033303;28;20406;-81
2024/01/19 07:58:57;;;;;;;250.55;68.45;;;;;;;-142.57;100.00;56181.94;5033804;28;20052;-82
2024/01/19 08:01:22;;;;;;;252.20;71.72;;;;;;;-142.57;100.00;56155.66;5034570;28;20474;-82
2024/01/19 08:03:48;;;;;;;199.18;67.18;;;;;;;-142.57;100.00;56143.56;5037659;28;20032;-81
2024/01/19 08:06:13;;;;;;;202.90;71.57;;;;;;;-142.57;100.00;56194.06;5038460;28;20052;-85
2024/01/19 08:08:39;;;;;;;203.40;70.25;;;;;;;-142.57;100.00;56202.16;5033894;28;20039;-81
2024/01/19 08:11:04;;;;;;;227.38;74.03;;;;;;;-142.57;100.00;56206.19;5032474;28;20036;-82
2024/01/19 08:13:30;;;;;;;219.98;73.45;;;;;;;-142.57;100.00;56264.78;5032746;28;20113;-81
2024/01/19 08:15:58;;;;;;;279.17;77.32;;;;;;;-142.57;100.00;56250.66;5048830;28;20036;-82
2024/01/19 08:18:24;;;;;;;262.30;77.90;;;;;;;-142.57;100.00;56258.72;5031956;28;20120;-82
2024/01/19 08:20:49;;;;;;;269.25;80.25;;;;;;;-142.57;100.00;56244.59;5032198;28;20124;-84
2024/01/19 08:23:15;;;;;;;252.90;77.05;;;;;;;-142.57;100.00;56266.81;5033239;28;20052;-85
2024/01/19 08:25:41;;;;;;;194.73;68.72;;;;;;;-142.57;100.00;56260.75;5033375;28;20120;-84
2024/01/19 08:28:06;;;;;;;211.52;73.05;;;;;;;-142.57;100.00;56278.94;5033608;28;20554;-82
2024/01/19 08:30:34;;;;;;;238.98;74.95;;;;;;;-142.57;100.00;56276.91;5031533;28;20038;-82
2024/01/19 08:33:01;;;;;;;1995.82;231.68;;;;;;;-142.57;100.00;56218.31;5015620;28;20033;-84
2024/01/19 08:35:27;;;;;;;189.77;71.50;;;;;;;-142.57;100.00;56200.13;5023103;28;20542;-83
2024/01/19 08:37:52;;;;;;;209.48;71.75;;;;;;;-142.57;100.00;56181.94;5024464;28;20108;-82
2024/01/19 08:40:18;;;;;;;205.15;69.68;;;;;;;-142.57;100.00;56167.78;5013044;28;20140;-80
2024/01/19 08:42:43;;;;;;;223.20;73.63;;;;;;;-142.57;100.00;56202.16;5014688;28;20096;-81
2024/01/19 08:45:09;;;;;;;264.35;70.40;;;;;;;-142.57;100.00;56206.19;5013099;28;20102;-83
2024/01/19 08:47:35;;;;;;;190.25;65.78;;;;;;;-142.57;100.00;56236.50;5012372;28;20128;-82
2024/01/19 08:50:02;;;;;;;194.20;65.82;;;;;;;-142.57;100.00;56190.03;5014390;28;20460;-83
2024/01/19 08:52:29;;;;;;;187.75;67.97;;;;;;;-142.57;100.00;56194.06;5012805;28;20022;-82
2024/01/19 08:54:54;;;;;;;207.23;66.25;;;;;;;-142.57;100.00;56214.28;5015111;28;20491;-83
2024/01/19 08:57:20;;;;;;;212.82;68.50;;;;;;;-142.57;100.00;56169.81;5021595;28;20036;-82
2024/01/19 08:59:46;;;;;;;199.90;67.03;;;;;;;-142.57;100.00;56210.22;5018094;28;20045;-83
2024/01/19 09:02:12;;;;;;;202.70;69.32;;;;;;;-142.57;100.00;56157.69;5016539;28;20029;-81
2024/01/19 09:04:38;;;;;;;214.15;68.57;;;;;;;-142.57;100.00;56190.03;5014263;28;20041;-82
2024/01/19 09:07:04;;;;;;;300.10;76.50;;;;;;;-142.57;100.00;56246.59;5013326;28;20117;-82
2024/01/19 09:09:29;;;;;;;191.02;67.90;;;;;;;-142.57;100.00;56242.56;5014710;28;20555;-82
2024/01/19 09:11:56;;;;;;;344.80;75.88;;;;;;;-142.57;100.00;56260.75;5013984;28;20033;-82
2024/01/19 09:14:22;;;;;;;185.75;64.75;;;;;;;-142.57;100.00;56173.84;5013751;28;20035;-81
2024/01/19 09:16:47;;;;;;;177.70;66.45;;;;;;;-142.57;100.00;56214.28;5016753;28;20449;-81
2024/01/19 09:19:13;;;;;;;199.68;72.03;;;;;;;-142.57;100.00;56181.94;5018108;28;20033;-82
2024/01/19 09:21:40;;;;;;;198.40;68.53;;;;;;;-142.57;100.00;56218.31;5020612;28;20049;-81
2024/01/19 09:24:06;;;;;;;188.30;65.90;;;;;;;-142.57;100.00;56198.09;5017094;28;20037;-85
2024/01/19 09:26:32;;;;;;;207.95;70.50;;;;;;;-142.57;100.00;56216.28;5013144;28;20888;-84
2024/01/19 09:28:58;;;;;;;248.85;72.80;;;;;;;-142.57;100.00;56242.56;5014460;28;20136;-80
2024/01/19 09:31:24;;;;;;;270.40;71.45;;;;;;;-142.57;100.00;56226.41;5024533;28;20077;-83
2024/01/19 09:33:50;;;;;;;198.85;68.57;;;;;;;-142.57;100.00;56262.78;5013697;28;20514;-82
2024/01/19 09:36:16;;;;;;;194.35;67.20;;;;;;;-142.57;100.00;56262.78;5033338;28;20029;-81
2024/01/19 09:38:42;;;;;;;194.45;65.90;;;;;;;-142.57;100.00;56234.47;5026892;28;20038;-83
2024/01/19 09:41:39;;;;;;;373.25;84.53;;;;;;;-142.57;100.00;56270.84;5018777;28;20041;-83
2024/01/19 09:44:10;;;;;;;201.85;70.45;;;;;;;-142.57;100.00;56238.53;4998175;28;20062;-81
2024/01/19 09:46:42;;;;;;;245.10;73.80;;;;;;;-142.57;100.00;56250.66;5010905;28;20502;-81
2024/01/19 09:49:24;;;;;;;193.23;67.68;;;;;;;-142.57;100.00;56236.50;5019690;28;20080;-80
2024/01/19 09:52:01;;;;;;;187.68;67.28;;;;;;;-142.57;100.00;56208.22;5016513;28;20041;-81
2024/01/19 09:54:33;;;;;;;309.58;73.72;;;;;;;-142.57;100.00;56230.44;5012778;28;20032;-83
2024/01/19 09:57:00;;;;;;;191.50;66.30;;;;;;;-142.57;100.00;56183.97;5019172;28;20043;-83
2024/01/19 09:59:28;;;;;;;193.20;66.57;;;;;;;-142.57;100.00;56222.34;5025608;28;20414;-80
2024/01/19 10:01:55;;;;;;;212.70;68.18;;;;;;;-142.57;100.00;56206.19;5013203;28;20498;-81
2024/01/19 10:04:22;;;;;;;229.23;69.13;;;;;;;-142.57;100.00;56256.72;5013633;28;20036;-83
2024/01/19 10:06:52;;;;;;;182.10;65.13;;;;;;;-142.57;100.00;56228.41;5014093;28;20037;-82
2024/01/19 10:09:22;;;;;;;186.38;67.65;;;;;;;-142.57;100.00;56198.09;5015232;28;20032;-81
2024/01/19 10:11:53;;;;;;;187.02;66.70;;;;;;;-142.57;100.00;56200.13;5024851;28;20498;-83
2024/01/19 10:14:19;;;;;;;219.52;70.45;;;;;;;-142.57;100.00;56210.22;5025771;28;20041;-80
2024/01/19 10:16:48;;;;;;;193.43;67.65;;;;;;;-142.57;100.00;56232.47;5026343;28;20537;-83
2024/01/19 10:19:14;;;;;;;184.07;64.93;;;;;;;-142.57;100.00;56232.47;5019581;28;20129;-80
2024/01/19 10:21:40;;;;;;;191.52;68.28;;;;;;;-142.57;100.00;56226.41;5025635;28;20063;-82
2024/01/19 10:24:14;;;;;;;178.30;66.65;;;;;;;-142.57;100.00;56216.28;5019385;28;20030;-84
2024/01/19 10:26:41;;;;;;;197.00;66.07;;;;;;;-142.57;100.00;56214.28;5043240;28;20064;-81
2024/01/19 10:29:14;;;;;;;205.65;71.97;;;;;;;-142.57;100.00;56216.28;5026290;28;20040;-86
2024/01/19 10:31:42;;;;;;;185.77;65.05;;;;;;;-142.57;100.00;56214.28;5037259;28;20036;-83
2024/01/19 10:34:19;;;;;;;175.70;65.45;;;;;;;-142.57;100.00;56240.53;5027658;28;20033;-82
2024/01/19 10:36:46;;;;;;;192.88;68.70;;;;;;;-142.57;100.00;56224.38;5026412;28;20037;-83
2024/01/19 10:39:22;;;;;;;206.07;66.25;;;;;;;-142.57;100.00;56194.06;5014760;28;20407;-81
2024/01/19 10:41:50;;;;;;;184.20;65.75;;;;;;;-142.57;100.00;56307.22;5024181;28;20034;-81
2024/01/19 10:44:21;;;;;;;242.95;68.40;;;;;;;-142.57;100.00;56282.97;5018224;28;20148;-82